sensor_id;sensor_type;location;lat;lon;timestamp;P1;durP1;ratioP1;P2;durP2;ratioP2
35877;SDS011;21982;49.804;24.072;2023-12-20T00:01:36;10.30;;;4.47;;
35877;SDS011;21982;49.804;24.072;2023-12-20T00:04:02;7.60;;;3.53;;
35877;SDS011;21982;49.804;24.072;2023-12-20T00:06:28;10.10;;;4.55;;
35877;SDS011;21982;49.804;24.072;2023-12-20T00:08:53;10.48;;;4.03;;
35877;SDS011;21982;49.804;24.072;2023-12-20T00:11:19;6.90;;;3.83;;
35877;SDS011;21982;49.804;24.072;2023-12-20T00:13:44;8.85;;;3.75;;
35877;SDS011;21982;49.804;24.072;2023-12-20T00:16:10;8.15;;;3.78;;
35877;SDS011;21982;49.804;24.072;2023-12-20T00:18:35;6.00;;;3.30;;
35877;SDS011;21982;49.804;24.072;2023-12-20T00:21:00;8.73;;;3.97;;
35877;SDS011;21982;49.804;24.072;2023-12-20T00:23:26;7.75;;;4.15;;
35877;SDS011;21982;49.804;24.072;2023-12-20T00:25:51;9.00;;;3.92;;
35877;SDS011;21982;49.804;24.072;2023-12-20T00:28:16;9.98;;;4.47;;
35877;SDS011;21982;49.804;24.072;2023-12-20T00:30:42;8.38;;;3.38;;
35877;SDS011;21982;49.804;24.072;2023-12-20T00:33:07;10.05;;;4.00;;
35877;SDS011;21982;49.804;24.072;2023-12-20T00:35:33;8.35;;;3.63;;
35877;SDS011;21982;49.804;24.072;2023-12-20T00:37:58;6.88;;;3.72;;
35877;SDS011;21982;49.804;24.072;2023-12-20T00:40:24;9.68;;;3.45;;
35877;SDS011;21982;49.804;24.072;2023-12-20T00:42:49;7.32;;;3.42;;
35877;SDS011;21982;49.804;24.072;2023-12-20T00:45:15;7.72;;;3.58;;
35877;SDS011;21982;49.804;24.072;2023-12-20T00:47:40;6.57;;;3.50;;
35877;SDS011;21982;49.804;24.072;2023-12-20T00:50:06;7.43;;;3.30;;
35877;SDS011;21982;49.804;24.072;2023-12-20T00:52:32;7.97;;;4.20;;
35877;SDS011;21982;49.804;24.072;2023-12-20T00:54:57;6.30;;;3.28;;
35877;SDS011;21982;49.804;24.072;2023-12-20T00:57:22;9.98;;;4.18;;
35877;SDS011;21982;49.804;24.072;2023-12-20T00:59:48;6.18;;;3.78;;
35877;SDS011;21982;49.804;24.072;2023-12-20T01:02:13;7.65;;;3.08;;
35877;SDS011;21982;49.804;24.072;2023-12-20T01:04:39;7.55;;;3.28;;
35877;SDS011;21982;49.804;24.072;2023-12-20T01:07:04;8.38;;;3.80;;
35877;SDS011;21982;49.804;24.072;2023-12-20T01:09:30;8.25;;;3.42;;
35877;SDS011;21982;49.804;24.072;2023-12-20T01:11:55;6.35;;;3.15;;
35877;SDS011;21982;49.804;24.072;2023-12-20T01:14:20;7.57;;;3.42;;
35877;SDS011;21982;49.804;24.072;2023-12-20T01:16:46;7.55;;;3.83;;
35877;SDS011;21982;49.804;24.072;2023-12-20T01:19:12;6.63;;;3.30;;
35877;SDS011;21982;49.804;24.072;2023-12-20T01:21:39;7.00;;;3.50;;
35877;SDS011;21982;49.804;24.072;2023-12-20T01:24:04;7.05;;;3.15;;
35877;SDS011;21982;49.804;24.072;2023-12-20T01:26:30;6.90;;;3.63;;
35877;SDS011;21982;49.804;24.072;2023-12-20T01:28:55;6.05;;;3.30;;
35877;SDS011;21982;49.804;24.072;2023-12-20T01:31:20;7.28;;;3.92;;
35877;SDS011;21982;49.804;24.072;2023-12-20T01:33:46;7.50;;;3.28;;
35877;SDS011;21982;49.804;24.072;2023-12-20T01:36:11;8.23;;;3.45;;
35877;SDS011;21982;49.804;24.072;2023-12-20T01:38:37;7.13;;;3.60;;
35877;SDS011;21982;49.804;24.072;2023-12-20T01:41:03;9.30;;;4.03;;
35877;SDS011;21982;49.804;24.072;2023-12-20T01:43:29;7.53;;;3.25;;
35877;SDS011;21982;49.804;24.072;2023-12-20T01:45:55;8.23;;;4.22;;
35877;SDS011;21982;49.804;24.072;2023-12-20T01:48:22;8.55;;;3.50;;
35877;SDS011;21982;49.804;24.072;2023-12-20T01:50:49;7.38;;;4.03;;
35877;SDS011;21982;49.804;24.072;2023-12-20T01:53:15;6.90;;;3.28;;
35877;SDS011;21982;49.804;24.072;2023-12-20T01:55:44;9.55;;;3.40;;
35877;SDS011;21982;49.804;24.072;2023-12-20T01:58:10;9.32;;;4.20;;
35877;SDS011;21982;49.804;24.072;2023-12-20T02:00:37;8.23;;;3.70;;
35877;SDS011;21982;49.804;24.072;2023-12-20T02:03:02;7.75;;;3.53;;
35877;SDS011;21982;49.804;24.072;2023-12-20T02:05:29;6.88;;;3.30;;
35877;SDS011;21982;49.804;24.072;2023-12-20T02:07:55;6.55;;;3.13;;
35877;SDS011;21982;49.804;24.072;2023-12-20T02:10:21;10.80;;;3.67;;
35877;SDS011;21982;49.804;24.072;2023-12-20T02:12:46;8.82;;;3.33;;
35877;SDS011;21982;49.804;24.072;2023-12-20T02:15:12;8.45;;;3.28;;
35877;SDS011;21982;49.804;24.072;2023-12-20T02:17:38;6.80;;;3.10;;
35877;SDS011;21982;49.804;24.072;2023-12-20T02:20:04;5.80;;;2.97;;
35877;SDS011;21982;49.804;24.072;2023-12-20T02:22:30;7.95;;;3.83;;
35877;SDS011;21982;49.804;24.072;2023-12-20T02:24:56;6.75;;;3.50;;
35877;SDS011;21982;49.804;24.072;2023-12-20T02:27:21;8.55;;;3.67;;
35877;SDS011;21982;49.804;24.072;2023-12-20T02:29:48;6.93;;;3.17;;
35877;SDS011;21982;49.804;24.072;2023-12-20T02:32:14;7.28;;;3.38;;
35877;SDS011;21982;49.804;24.072;2023-12-20T02:34:40;9.00;;;3.88;;
35877;SDS011;21982;49.804;24.072;2023-12-20T02:37:06;9.98;;;3.50;;
35877;SDS011;21982;49.804;24.072;2023-12-20T02:39:31;6.75;;;3.15;;
35877;SDS011;21982;49.804;24.072;2023-12-20T02:41:56;8.77;;;3.80;;
35877;SDS011;21982;49.804;24.072;2023-12-20T02:44:22;7.50;;;3.50;;
35877;SDS011;21982;49.804;24.072;2023-12-20T02:46:48;7.78;;;4.03;;
35877;SDS011;21982;49.804;24.072;2023-12-20T02:49:13;7.20;;;3.10;;
35877;SDS011;21982;49.804;24.072;2023-12-20T02:51:39;8.75;;;5.13;;
35877;SDS011;21982;49.804;24.072;2023-12-20T02:54:04;7.60;;;3.53;;
35877;SDS011;21982;49.804;24.072;2023-12-20T02:56:30;12.15;;;4.38;;
35877;SDS011;21982;49.804;24.072;2023-12-20T02:58:58;8.18;;;3.75;;
35877;SDS011;21982;49.804;24.072;2023-12-20T03:01:23;9.90;;;4.57;;
35877;SDS011;21982;49.804;24.072;2023-12-20T03:03:49;6.55;;;3.20;;
35877;SDS011;21982;49.804;24.072;2023-12-20T03:06:17;8.05;;;3.65;;
35877;SDS011;21982;49.804;24.072;2023-12-20T03:08:43;6.10;;;3.47;;
35877;SDS011;21982;49.804;24.072;2023-12-20T03:11:09;6.38;;;3.03;;
35877;SDS011;21982;49.804;24.072;2023-12-20T03:13:35;7.10;;;3.65;;
35877;SDS011;21982;49.804;24.072;2023-12-20T03:16:00;7.07;;;3.28;;
35877;SDS011;21982;49.804;24.072;2023-12-20T03:18:25;6.43;;;3.63;;
35877;SDS011;21982;49.804;24.072;2023-12-20T03:20:53;7.47;;;2.88;;
35877;SDS011;21982;49.804;24.072;2023-12-20T03:23:18;6.78;;;2.75;;
35877;SDS011;21982;49.804;24.072;2023-12-20T03:25:44;7.55;;;3.53;;
35877;SDS011;21982;49.804;24.072;2023-12-20T03:28:09;7.20;;;3.42;;
35877;SDS011;21982;49.804;24.072;2023-12-20T03:30:34;9.15;;;3.97;;
35877;SDS011;21982;49.804;24.072;2023-12-20T03:33:00;8.10;;;3.83;;
35877;SDS011;21982;49.804;24.072;2023-12-20T03:35:25;6.65;;;2.90;;
35877;SDS011;21982;49.804;24.072;2023-12-20T03:37:51;9.75;;;3.35;;
35877;SDS011;21982;49.804;24.072;2023-12-20T03:40:16;9.82;;;3.53;;
35877;SDS011;21982;49.804;24.072;2023-12-20T03:42:42;5.78;;;2.67;;
35877;SDS011;21982;49.804;24.072;2023-12-20T03:45:07;9.20;;;4.40;;
35877;SDS011;21982;49.804;24.072;2023-12-20T03:47:33;8.80;;;4.53;;
35877;SDS011;21982;49.804;24.072;2023-12-20T03:49:58;6.85;;;3.72;;
35877;SDS011;21982;49.804;24.072;2023-12-20T03:52:24;7.15;;;3.17;;
35877;SDS011;21982;49.804;24.072;2023-12-20T03:54:49;7.57;;;3.75;;
35877;SDS011;21982;49.804;24.072;2023-12-20T03:57:20;7.32;;;3.60;;
35877;SDS011;21982;49.804;24.072;2023-12-20T03:59:47;7.00;;;3.65;;
35877;SDS011;21982;49.804;24.072;2023-12-20T04:02:13;8.85;;;4.07;;
35877;SDS011;21982;49.804;24.072;2023-12-20T04:04:38;5.97;;;3.13;;
35877;SDS011;21982;49.804;24.072;2023-12-20T04:07:03;8.30;;;3.85;;
35877;SDS011;21982;49.804;24.072;2023-12-20T04:09:29;6.50;;;3.42;;
35877;SDS011;21982;49.804;24.072;2023-12-20T04:11:54;9.25;;;3.67;;
35877;SDS011;21982;49.804;24.072;2023-12-20T04:14:20;6.88;;;3.38;;
35877;SDS011;21982;49.804;24.072;2023-12-20T04:16:45;7.13;;;3.20;;
35877;SDS011;21982;49.804;24.072;2023-12-20T04:19:11;7.15;;;3.47;;
35877;SDS011;21982;49.804;24.072;2023-12-20T04:21:36;7.72;;;3.58;;
35877;SDS011;21982;49.804;24.072;2023-12-20T04:24:01;8.43;;;3.38;;
35877;SDS011;21982;49.804;24.072;2023-12-20T04:26:27;4.60;;;3.10;;
35877;SDS011;21982;49.804;24.072;2023-12-20T04:28:52;7.70;;;3.38;;
35877;SDS011;21982;49.804;24.072;2023-12-20T04:31:19;7.05;;;3.42;;
35877;SDS011;21982;49.804;24.072;2023-12-20T04:33:46;8.00;;;3.83;;
35877;SDS011;21982;49.804;24.072;2023-12-20T04:36:16;7.38;;;3.50;;
35877;SDS011;21982;49.804;24.072;2023-12-20T04:38:42;6.45;;;3.20;;
35877;SDS011;21982;49.804;24.072;2023-12-20T04:41:07;8.38;;;3.45;;
35877;SDS011;21982;49.804;24.072;2023-12-20T04:43:33;8.75;;;3.63;;
35877;SDS011;21982;49.804;24.072;2023-12-20T04:45:58;7.07;;;3.65;;
35877;SDS011;21982;49.804;24.072;2023-12-20T04:48:23;7.43;;;3.35;;
35877;SDS011;21982;49.804;24.072;2023-12-20T04:50:50;8.20;;;4.13;;
35877;SDS011;21982;49.804;24.072;2023-12-20T04:53:17;11.30;;;4.32;;
35877;SDS011;21982;49.804;24.072;2023-12-20T04:55:43;7.65;;;3.47;;
35877;SDS011;21982;49.804;24.072;2023-12-20T04:58:08;7.20;;;3.83;;
35877;SDS011;21982;49.804;24.072;2023-12-20T05:00:34;7.75;;;3.53;;
35877;SDS011;21982;49.804;24.072;2023-12-20T05:02:59;9.40;;;4.22;;
35877;SDS011;21982;49.804;24.072;2023-12-20T05:05:25;7.80;;;4.00;;
35877;SDS011;21982;49.804;24.072;2023-12-20T05:07:50;7.30;;;3.78;;
35877;SDS011;21982;49.804;24.072;2023-12-20T05:10:15;9.63;;;3.80;;
35877;SDS011;21982;49.804;24.072;2023-12-20T05:12:41;9.70;;;4.38;;
35877;SDS011;21982;49.804;24.072;2023-12-20T05:15:06;8.43;;;3.85;;
35877;SDS011;21982;49.804;24.072;2023-12-20T05:17:32;6.72;;;3.40;;
35877;SDS011;21982;49.804;24.072;2023-12-20T05:19:57;9.77;;;4.30;;
35877;SDS011;21982;49.804;24.072;2023-12-20T05:22:22;7.40;;;3.70;;
35877;SDS011;21982;49.804;24.072;2023-12-20T05:24:48;8.63;;;4.43;;
35877;SDS011;21982;49.804;24.072;2023-12-20T05:27:14;7.50;;;3.72;;
35877;SDS011;21982;49.804;24.072;2023-12-20T05:29:39;10.60;;;4.55;;
35877;SDS011;21982;49.804;24.072;2023-12-20T05:32:05;10.60;;;4.55;;
35877;SDS011;21982;49.804;24.072;2023-12-20T05:34:30;7.88;;;3.65;;
35877;SDS011;21982;49.804;24.072;2023-12-20T05:36:57;9.15;;;4.80;;
35877;SDS011;21982;49.804;24.072;2023-12-20T05:39:22;7.43;;;3.70;;
35877;SDS011;21982;49.804;24.072;2023-12-20T05:41:48;9.48;;;4.45;;
35877;SDS011;21982;49.804;24.072;2023-12-20T05:44:13;6.65;;;3.53;;
35877;SDS011;21982;49.804;24.072;2023-12-20T05:46:39;8.48;;;4.30;;
35877;SDS011;21982;49.804;24.072;2023-12-20T05:49:05;9.50;;;4.63;;
35877;SDS011;21982;49.804;24.072;2023-12-20T05:51:30;8.88;;;4.35;;
35877;SDS011;21982;49.804;24.072;2023-12-20T05:53:56;6.45;;;3.38;;
35877;SDS011;21982;49.804;24.072;2023-12-20T05:56:21;8.32;;;3.80;;
35877;SDS011;21982;49.804;24.072;2023-12-20T05:58:47;9.23;;;4.18;;
35877;SDS011;21982;49.804;24.072;2023-12-20T06:01:14;8.82;;;4.10;;
35877;SDS011;21982;49.804;24.072;2023-12-20T06:03:43;14.82;;;3.75;;
35877;SDS011;21982;49.804;24.072;2023-12-20T06:06:08;6.88;;;3.47;;
35877;SDS011;21982;49.804;24.072;2023-12-20T06:08:35;10.98;;;5.20;;
35877;SDS011;21982;49.804;24.072;2023-12-20T06:11:01;9.02;;;4.72;;
35877;SDS011;21982;49.804;24.072;2023-12-20T06:13:26;10.27;;;4.53;;
35877;SDS011;21982;49.804;24.072;2023-12-20T06:15:52;10.30;;;5.03;;
35877;SDS011;21982;49.804;24.072;2023-12-20T06:18:18;9.07;;;5.30;;
35877;SDS011;21982;49.804;24.072;2023-12-20T06:20:44;10.55;;;4.55;;
35877;SDS011;21982;49.804;24.072;2023-12-20T06:23:09;7.80;;;4.40;;
35877;SDS011;21982;49.804;24.072;2023-12-20T06:25:35;10.55;;;5.68;;
35877;SDS011;21982;49.804;24.072;2023-12-20T06:28:00;8.52;;;4.30;;
35877;SDS011;21982;49.804;24.072;2023-12-20T06:30:25;11.15;;;5.38;;
35877;SDS011;21982;49.804;24.072;2023-12-20T06:32:53;10.75;;;4.75;;
35877;SDS011;21982;49.804;24.072;2023-12-20T06:35:24;7.80;;;4.03;;
35877;SDS011;21982;49.804;24.072;2023-12-20T06:37:50;8.70;;;3.90;;
35877;SDS011;21982;49.804;24.072;2023-12-20T06:40:15;7.25;;;3.88;;
35877;SDS011;21982;49.804;24.072;2023-12-20T06:42:41;14.38;;;5.28;;
35877;SDS011;21982;49.804;24.072;2023-12-20T06:45:07;9.82;;;4.93;;
35877;SDS011;21982;49.804;24.072;2023-12-20T06:47:33;9.25;;;5.18;;
35877;SDS011;21982;49.804;24.072;2023-12-20T06:49:58;10.95;;;4.68;;
35877;SDS011;21982;49.804;24.072;2023-12-20T06:52:23;11.18;;;5.30;;
35877;SDS011;21982;49.804;24.072;2023-12-20T06:54:50;12.40;;;5.88;;
35877;SDS011;21982;49.804;24.072;2023-12-20T06:57:15;11.40;;;5.28;;
35877;SDS011;21982;49.804;24.072;2023-12-20T06:59:41;14.45;;;7.13;;
35877;SDS011;21982;49.804;24.072;2023-12-20T07:02:07;11.75;;;5.30;;
35877;SDS011;21982;49.804;24.072;2023-12-20T07:04:34;10.30;;;5.63;;
35877;SDS011;21982;49.804;24.072;2023-12-20T07:07:03;10.60;;;6.47;;
35877;SDS011;21982;49.804;24.072;2023-12-20T07:09:29;9.55;;;4.90;;
35877;SDS011;21982;49.804;24.072;2023-12-20T07:11:54;11.85;;;5.55;;
35877;SDS011;21982;49.804;24.072;2023-12-20T07:14:19;12.18;;;6.00;;
35877;SDS011;21982;49.804;24.072;2023-12-20T07:16:45;11.75;;;6.18;;
35877;SDS011;21982;49.804;24.072;2023-12-20T07:19:10;17.35;;;7.80;;
35877;SDS011;21982;49.804;24.072;2023-12-20T07:21:35;15.85;;;7.60;;
35877;SDS011;21982;49.804;24.072;2023-12-20T07:24:01;12.05;;;6.80;;
35877;SDS011;21982;49.804;24.072;2023-12-20T07:26:26;14.23;;;7.60;;
35877;SDS011;21982;49.804;24.072;2023-12-20T07:28:52;18.45;;;7.55;;
35877;SDS011;21982;49.804;24.072;2023-12-20T07:31:17;22.35;;;10.55;;
35877;SDS011;21982;49.804;24.072;2023-12-20T07:33:42;14.30;;;6.55;;
35877;SDS011;21982;49.804;24.072;2023-12-20T07:36:08;15.40;;;7.63;;
35877;SDS011;21982;49.804;24.072;2023-12-20T07:38:33;11.70;;;6.18;;
35877;SDS011;21982;49.804;24.072;2023-12-20T07:40:59;10.88;;;5.47;;
35877;SDS011;21982;49.804;24.072;2023-12-20T07:43:25;12.10;;;5.85;;
35877;SDS011;21982;49.804;24.072;2023-12-20T07:45:50;11.43;;;6.55;;
35877;SDS011;21982;49.804;24.072;2023-12-20T07:48:15;14.20;;;5.78;;
35877;SDS011;21982;49.804;24.072;2023-12-20T07:50:41;12.45;;;5.57;;
35877;SDS011;21982;49.804;24.072;2023-12-20T07:53:07;11.95;;;6.05;;
35877;SDS011;21982;49.804;24.072;2023-12-20T07:55:32;17.00;;;6.20;;
35877;SDS011;21982;49.804;24.072;2023-12-20T07:57:59;13.80;;;7.55;;
35877;SDS011;21982;49.804;24.072;2023-12-20T08:00:25;11.30;;;6.78;;
35877;SDS011;21982;49.804;24.072;2023-12-20T08:03:00;13.25;;;7.97;;
35877;SDS011;21982;49.804;24.072;2023-12-20T08:05:28;15.43;;;6.88;;
35877;SDS011;21982;49.804;24.072;2023-12-20T08:07:53;16.00;;;7.93;;
35877;SDS011;21982;49.804;24.072;2023-12-20T08:10:19;18.45;;;8.75;;
35877;SDS011;21982;49.804;24.072;2023-12-20T08:12:44;16.27;;;8.93;;
35877;SDS011;21982;49.804;24.072;2023-12-20T08:15:10;15.45;;;8.85;;
35877;SDS011;21982;49.804;24.072;2023-12-20T08:17:35;17.00;;;9.27;;
35877;SDS011;21982;49.804;24.072;2023-12-20T08:20:01;22.00;;;11.52;;
35877;SDS011;21982;49.804;24.072;2023-12-20T08:22:26;13.63;;;7.85;;
35877;SDS011;21982;49.804;24.072;2023-12-20T08:27:27;14.13;;;7.65;;
35877;SDS011;21982;49.804;24.072;2023-12-20T08:29:52;13.48;;;6.85;;
35877;SDS011;21982;49.804;24.072;2023-12-20T08:32:17;13.25;;;6.18;;
35877;SDS011;21982;49.804;24.072;2023-12-20T08:34:44;13.85;;;7.18;;
35877;SDS011;21982;49.804;24.072;2023-12-20T08:42:20;9.75;;;4.72;;
35877;SDS011;21982;49.804;24.072;2023-12-20T08:44:46;10.57;;;5.72;;
35877;SDS011;21982;49.804;24.072;2023-12-20T08:47:11;10.23;;;4.82;;
35877;SDS011;21982;49.804;24.072;2023-12-20T08:49:38;10.77;;;5.25;;
35877;SDS011;21982;49.804;24.072;2023-12-20T08:57:14;8.68;;;4.55;;
35877;SDS011;21982;49.804;24.072;2023-12-20T08:59:40;9.45;;;5.00;;
35877;SDS011;21982;49.804;24.072;2023-12-20T09:02:05;13.93;;;6.97;;
35877;SDS011;21982;49.804;24.072;2023-12-20T09:04:30;11.43;;;5.28;;
35877;SDS011;21982;49.804;24.072;2023-12-20T09:06:59;13.27;;;6.43;;
35877;SDS011;21982;49.804;24.072;2023-12-20T09:09:24;18.88;;;6.25;;
35877;SDS011;21982;49.804;24.072;2023-12-20T09:11:50;12.02;;;6.00;;
35877;SDS011;21982;49.804;24.072;2023-12-20T09:14:16;11.35;;;5.57;;
35877;SDS011;21982;49.804;24.072;2023-12-20T09:16:42;11.23;;;6.70;;
35877;SDS011;21982;49.804;24.072;2023-12-20T09:19:07;15.15;;;7.53;;
35877;SDS011;21982;49.804;24.072;2023-12-20T09:21:33;13.65;;;5.95;;
35877;SDS011;21982;49.804;24.072;2023-12-20T09:23:59;11.13;;;5.75;;
35877;SDS011;21982;49.804;24.072;2023-12-20T09:26:24;12.88;;;6.35;;
35877;SDS011;21982;49.804;24.072;2023-12-20T09:28:49;12.10;;;6.93;;
35877;SDS011;21982;49.804;24.072;2023-12-20T09:31:15;11.95;;;6.78;;
35877;SDS011;21982;49.804;24.072;2023-12-20T09:33:40;19.20;;;7.57;;
35877;SDS011;21982;49.804;24.072;2023-12-20T09:36:06;17.25;;;6.75;;
35877;SDS011;21982;49.804;24.072;2023-12-20T09:41:06;17.48;;;8.60;;
35877;SDS011;21982;49.804;24.072;2023-12-20T09:43:32;15.40;;;7.88;;
35877;SDS011;21982;49.804;24.072;2023-12-20T09:46:05;12.10;;;5.97;;
35877;SDS011;21982;49.804;24.072;2023-12-20T09:48:32;19.40;;;8.75;;
35877;SDS011;21982;49.804;24.072;2023-12-20T09:50:58;18.45;;;7.85;;
35877;SDS011;21982;49.804;24.072;2023-12-20T09:53:23;13.73;;;6.45;;
35877;SDS011;21982;49.804;24.072;2023-12-20T09:55:54;10.50;;;6.40;;
35877;SDS011;21982;49.804;24.072;2023-12-20T09:58:24;12.68;;;6.55;;
35877;SDS011;21982;49.804;24.072;2023-12-20T10:00:49;13.00;;;7.53;;
35877;SDS011;21982;49.804;24.072;2023-12-20T10:03:16;25.50;;;11.02;;
35877;SDS011;21982;49.804;24.072;2023-12-20T10:05:43;29.20;;;14.13;;
35877;SDS011;21982;49.804;24.072;2023-12-20T10:08:09;38.42;;;17.88;;
35877;SDS011;21982;49.804;24.072;2023-12-20T10:10:35;27.15;;;12.23;;
35877;SDS011;21982;49.804;24.072;2023-12-20T10:13:04;25.27;;;8.25;;
35877;SDS011;21982;49.804;24.072;2023-12-20T10:15:36;16.70;;;8.27;;
35877;SDS011;21982;49.804;24.072;2023-12-20T10:18:03;30.83;;;15.23;;
35877;SDS011;21982;49.804;24.072;2023-12-20T10:20:30;24.10;;;14.32;;
35877;SDS011;21982;49.804;24.072;2023-12-20T10:22:57;23.98;;;11.95;;
35877;SDS011;21982;49.804;24.072;2023-12-20T10:25:24;21.67;;;11.50;;
35877;SDS011;21982;49.804;24.072;2023-12-20T10:27:50;23.25;;;10.95;;
35877;SDS011;21982;49.804;24.072;2023-12-20T10:30:33;15.02;;;7.45;;
35877;SDS011;21982;49.804;24.072;2023-12-20T10:32:58;13.10;;;6.90;;
35877;SDS011;21982;49.804;24.072;2023-12-20T10:35:24;12.38;;;5.90;;
35877;SDS011;21982;49.804;24.072;2023-12-20T10:37:49;13.70;;;7.45;;
35877;SDS011;21982;49.804;24.072;2023-12-20T10:40:20;21.63;;;9.30;;
35877;SDS011;21982;49.804;24.072;2023-12-20T10:42:47;17.70;;;7.40;;
35877;SDS011;21982;49.804;24.072;2023-12-20T10:45:13;15.07;;;7.32;;
35877;SDS011;21982;49.804;24.072;2023-12-20T10:47:38;16.05;;;7.07;;
35877;SDS011;21982;49.804;24.072;2023-12-20T10:50:08;18.23;;;8.30;;
35877;SDS011;21982;49.804;24.072;2023-12-20T10:52:34;20.67;;;8.45;;
35877;SDS011;21982;49.804;24.072;2023-12-20T10:55:00;13.90;;;6.88;;
35877;SDS011;21982;49.804;24.072;2023-12-20T10:57:26;15.60;;;8.18;;
35877;SDS011;21982;49.804;24.072;2023-12-20T10:59:52;23.55;;;9.88;;
35877;SDS011;21982;49.804;24.072;2023-12-20T11:02:19;29.85;;;10.55;;
35877;SDS011;21982;49.804;24.072;2023-12-20T11:04:50;23.48;;;10.93;;
35877;SDS011;21982;49.804;24.072;2023-12-20T11:10:18;38.60;;;18.13;;
35877;SDS011;21982;49.804;24.072;2023-12-20T11:12:52;31.42;;;15.75;;
35877;SDS011;21982;49.804;24.072;2023-12-20T11:15:22;27.25;;;15.77;;
35877;SDS011;21982;49.804;24.072;2023-12-20T11:17:56;23.70;;;11.93;;
35877;SDS011;21982;49.804;24.072;2023-12-20T11:20:24;19.47;;;9.77;;
35877;SDS011;21982;49.804;24.072;2023-12-20T11:23:00;30.77;;;13.45;;
35877;SDS011;21982;49.804;24.072;2023-12-20T11:25:26;21.17;;;9.98;;
35877;SDS011;21982;49.804;24.072;2023-12-20T11:28:06;32.97;;;11.70;;
35877;SDS011;21982;49.804;24.072;2023-12-20T11:31:07;37.83;;;13.20;;
35877;SDS011;21982;49.804;24.072;2023-12-20T11:33:29;22.92;;;10.82;;
35877;SDS011;21982;49.804;24.072;2023-12-20T11:35:56;22.90;;;10.98;;
35877;SDS011;21982;49.804;24.072;2023-12-20T11:38:22;21.30;;;9.13;;
35877;SDS011;21982;49.804;24.072;2023-12-20T11:40:49;21.52;;;9.13;;
35877;SDS011;21982;49.804;24.072;2023-12-20T11:43:36;25.70;;;11.07;;
35877;SDS011;21982;49.804;24.072;2023-12-20T11:46:06;17.42;;;8.57;;
35877;SDS011;21982;49.804;24.072;2023-12-20T11:48:34;19.95;;;9.02;;
35877;SDS011;21982;49.804;24.072;2023-12-20T11:51:01;24.38;;;8.82;;
35877;SDS011;21982;49.804;24.072;2023-12-20T11:53:27;20.23;;;9.45;;
35877;SDS011;21982;49.804;24.072;2023-12-20T11:55:54;16.50;;;9.70;;
35877;SDS011;21982;49.804;24.072;2023-12-20T11:58:19;22.45;;;10.95;;
35877;SDS011;21982;49.804;24.072;2023-12-20T12:00:45;18.70;;;8.80;;
35877;SDS011;21982;49.804;24.072;2023-12-20T12:03:14;13.38;;;7.38;;
35877;SDS011;21982;49.804;24.072;2023-12-20T12:05:42;15.77;;;8.48;;
35877;SDS011;21982;49.804;24.072;2023-12-20T12:08:08;10.52;;;6.40;;
35877;SDS011;21982;49.804;24.072;2023-12-20T12:10:33;16.63;;;7.30;;
35877;SDS011;21982;49.804;24.072;2023-12-20T12:12:59;13.10;;;6.95;;
35877;SDS011;21982;49.804;24.072;2023-12-20T12:15:25;18.52;;;7.15;;
35877;SDS011;21982;49.804;24.072;2023-12-20T12:17:56;20.75;;;7.75;;
35877;SDS011;21982;49.804;24.072;2023-12-20T12:20:22;16.23;;;7.47;;
35877;SDS011;21982;49.804;24.072;2023-12-20T12:22:58;15.30;;;7.97;;
35877;SDS011;21982;49.804;24.072;2023-12-20T12:25:24;15.35;;;7.68;;
35877;SDS011;21982;49.804;24.072;2023-12-20T12:27:50;16.55;;;9.13;;
35877;SDS011;21982;49.804;24.072;2023-12-20T12:30:16;26.65;;;11.00;;
35877;SDS011;21982;49.804;24.072;2023-12-20T12:32:43;16.20;;;8.75;;
35877;SDS011;21982;49.804;24.072;2023-12-20T12:35:09;19.10;;;9.07;;
35877;SDS011;21982;49.804;24.072;2023-12-20T12:37:35;18.83;;;9.95;;
35877;SDS011;21982;49.804;24.072;2023-12-20T12:40:05;18.77;;;9.63;;
35877;SDS011;21982;49.804;24.072;2023-12-20T12:42:35;19.67;;;9.32;;
35877;SDS011;21982;49.804;24.072;2023-12-20T12:45:02;17.40;;;8.57;;
35877;SDS011;21982;49.804;24.072;2023-12-20T12:47:29;24.30;;;10.98;;
35877;SDS011;21982;49.804;24.072;2023-12-20T12:49:56;19.77;;;8.85;;
35877;SDS011;21982;49.804;24.072;2023-12-20T12:52:21;12.60;;;6.82;;
35877;SDS011;21982;49.804;24.072;2023-12-20T12:54:47;13.25;;;6.82;;
35877;SDS011;21982;49.804;24.072;2023-12-20T12:57:13;15.25;;;7.82;;
35877;SDS011;21982;49.804;24.072;2023-12-20T12:59:40;14.32;;;8.50;;
35877;SDS011;21982;49.804;24.072;2023-12-20T13:02:06;16.10;;;8.35;;
35877;SDS011;21982;49.804;24.072;2023-12-20T13:04:31;20.98;;;9.82;;
35877;SDS011;21982;49.804;24.072;2023-12-20T13:06:57;17.92;;;9.23;;
35877;SDS011;21982;49.804;24.072;2023-12-20T13:09:22;25.55;;;8.82;;
35877;SDS011;21982;49.804;24.072;2023-12-20T13:11:48;12.35;;;7.38;;
35877;SDS011;21982;49.804;24.072;2023-12-20T13:14:13;21.40;;;9.05;;
35877;SDS011;21982;49.804;24.072;2023-12-20T13:16:41;13.70;;;7.22;;
35877;SDS011;21982;49.804;24.072;2023-12-20T13:19:09;12.45;;;7.32;;
35877;SDS011;21982;49.804;24.072;2023-12-20T13:21:35;14.93;;;7.20;;
35877;SDS011;21982;49.804;24.072;2023-12-20T13:24:01;17.42;;;7.93;;
35877;SDS011;21982;49.804;24.072;2023-12-20T13:26:26;17.35;;;7.38;;
35877;SDS011;21982;49.804;24.072;2023-12-20T13:28:52;24.25;;;10.13;;
35877;SDS011;21982;49.804;24.072;2023-12-20T13:31:19;19.80;;;7.80;;
35877;SDS011;21982;49.804;24.072;2023-12-20T13:33:45;15.00;;;7.55;;
35877;SDS011;21982;49.804;24.072;2023-12-20T13:36:10;26.13;;;9.45;;
35877;SDS011;21982;49.804;24.072;2023-12-20T13:38:35;16.63;;;5.93;;
35877;SDS011;21982;49.804;24.072;2023-12-20T13:41:02;20.23;;;9.20;;
35877;SDS011;21982;49.804;24.072;2023-12-20T13:43:28;17.58;;;7.53;;
35877;SDS011;21982;49.804;24.072;2023-12-20T13:45:53;13.48;;;7.20;;
35877;SDS011;21982;49.804;24.072;2023-12-20T13:48:19;13.95;;;6.93;;
35877;SDS011;21982;49.804;24.072;2023-12-20T13:50:45;16.90;;;8.25;;
35877;SDS011;21982;49.804;24.072;2023-12-20T13:53:10;16.30;;;7.32;;
35877;SDS011;21982;49.804;24.072;2023-12-20T13:55:36;17.40;;;8.88;;
35877;SDS011;21982;49.804;24.072;2023-12-20T13:58:01;15.50;;;8.80;;
35877;SDS011;21982;49.804;24.072;2023-12-20T14:00:27;17.58;;;9.02;;
35877;SDS011;21982;49.804;24.072;2023-12-20T14:02:52;13.63;;;8.07;;
35877;SDS011;21982;49.804;24.072;2023-12-20T14:05:22;15.30;;;8.30;;
35877;SDS011;21982;49.804;24.072;2023-12-20T14:07:55;15.65;;;8.85;;
35877;SDS011;21982;49.804;24.072;2023-12-20T14:10:22;12.48;;;7.57;;
35877;SDS011;21982;49.804;24.072;2023-12-20T14:12:51;12.38;;;6.15;;
35877;SDS011;21982;49.804;24.072;2023-12-20T14:15:17;13.65;;;7.25;;
35877;SDS011;21982;49.804;24.072;2023-12-20T14:17:43;13.27;;;7.40;;
35877;SDS011;21982;49.804;24.072;2023-12-20T14:20:09;13.80;;;7.75;;
35877;SDS011;21982;49.804;24.072;2023-12-20T14:22:35;13.07;;;7.88;;
35877;SDS011;21982;49.804;24.072;2023-12-20T14:25:00;15.02;;;8.07;;
35877;SDS011;21982;49.804;24.072;2023-12-20T14:27:26;13.63;;;7.60;;
35877;SDS011;21982;49.804;24.072;2023-12-20T14:29:54;17.38;;;8.93;;
35877;SDS011;21982;49.804;24.072;2023-12-20T14:32:20;11.93;;;6.93;;
35877;SDS011;21982;49.804;24.072;2023-12-20T14:34:45;14.27;;;7.60;;
35877;SDS011;21982;49.804;24.072;2023-12-20T14:37:11;17.08;;;6.50;;
35877;SDS011;21982;49.804;24.072;2023-12-20T14:39:37;13.90;;;7.22;;